sensor_id;sensor_type;location;lat;lon;timestamp;temperature;humidity
23568;DHT22;11962;50.838;4.430;2023-07-08T00:01:18;22.00;99.90
23568;DHT22;11962;50.838;4.430;2023-07-08T00:03:44;22.00;99.90
23568;DHT22;11962;50.838;4.430;2023-07-08T00:06:21;21.90;99.90
23568;DHT22;11962;50.838;4.430;2023-07-08T00:08:48;21.80;99.90
23568;DHT22;11962;50.838;4.430;2023-07-08T00:11:14;21.80;99.90
23568;DHT22;11962;50.838;4.430;2023-07-08T00:13:40;21.80;99.90
23568;DHT22;11962;50.838;4.430;2023-07-08T00:16:17;21.70;99.90
23568;DHT22;11962;50.838;4.430;2023-07-08T00:18:44;21.70;99.90
23568;DHT22;11962;50.838;4.430;2023-07-08T00:21:12;21.70;99.90
23568;DHT22;11962;50.838;4.430;2023-07-08T00:23:47;21.70;99.90
23568;DHT22;11962;50.838;4.430;2023-07-08T00:26:24;21.60;99.90
23568;DHT22;11962;50.838;4.430;2023-07-08T00:28:51;21.60;99.90
23568;DHT22;11962;50.838;4.430;2023-07-08T00:31:16;21.50;99.90
23568;DHT22;11962;50.838;4.430;2023-07-08T00:33:42;21.40;99.90
23568;DHT22;11962;50.838;4.430;2023-07-08T00:36:13;21.40;99.90
23568;DHT22;11962;50.838;4.430;2023-07-08T00:38:39;21.40;99.90
23568;DHT22;11962;50.838;4.430;2023-07-08T00:41:22;21.40;99.90
23568;DHT22;11962;50.838;4.430;2023-07-08T00:43:55;21.30;99.90
23568;DHT22;11962;50.838;4.430;2023-07-08T00:51:24;21.20;99.90
23568;DHT22;11962;50.838;4.430;2023-07-08T00:53:50;21.20;99.90
23568;DHT22;11962;50.838;4.430;2023-07-08T00:56:26;21.20;99.90
23568;DHT22;11962;50.838;4.430;2023-07-08T00:59:07;21.10;99.90
23568;DHT22;11962;50.838;4.430;2023-07-08T01:01:36;21.10;99.90
23568;DHT22;11962;50.838;4.430;2023-07-08T01:04:09;21.00;99.90
23568;DHT22;11962;50.838;4.430;2023-07-08T01:06:39;21.00;99.90
23568;DHT22;11962;50.838;4.430;2023-07-08T01:09:08;20.90;99.90
23568;DHT22;11962;50.838;4.430;2023-07-08T01:11:37;20.90;99.90
23568;DHT22;11962;50.838;4.430;2023-07-08T01:14:05;20.90;99.90
23568;DHT22;11962;50.838;4.430;2023-07-08T01:16:32;20.90;99.90
23568;DHT22;11962;50.838;4.430;2023-07-08T01:19:00;20.80;99.90
23568;DHT22;11962;50.838;4.430;2023-07-08T01:24:18;20.80;99.90
23568;DHT22;11962;50.838;4.430;2023-07-08T01:26:45;20.70;99.90
23568;DHT22;11962;50.838;4.430;2023-07-08T01:29:12;20.70;99.90
23568;DHT22;11962;50.838;4.430;2023-07-08T01:31:38;20.70;99.90
23568;DHT22;11962;50.838;4.430;2023-07-08T01:34:04;20.60;99.90
23568;DHT22;11962;50.838;4.430;2023-07-08T01:36:34;20.60;99.90
23568;DHT22;11962;50.838;4.430;2023-07-08T01:39:02;20.60;99.90
23568;DHT22;11962;50.838;4.430;2023-07-08T01:41:28;20.50;99.90
23568;DHT22;11962;50.838;4.430;2023-07-08T01:43:54;20.50;99.90
23568;DHT22;11962;50.838;4.430;2023-07-08T01:46:25;20.50;99.90
23568;DHT22;11962;50.838;4.430;2023-07-08T01:48:56;20.40;99.90
23568;DHT22;11962;50.838;4.430;2023-07-08T01:51:24;20.40;99.90
23568;DHT22;11962;50.838;4.430;2023-07-08T01:53:51;20.40;99.90
23568;DHT22;11962;50.838;4.430;2023-07-08T01:56:17;20.40;99.90
23568;DHT22;11962;50.838;4.430;2023-07-08T01:58:43;20.40;99.90
23568;DHT22;11962;50.838;4.430;2023-07-08T02:01:09;20.40;99.90
23568;DHT22;11962;50.838;4.430;2023-07-08T02:03:35;20.40;99.90
23568;DHT22;11962;50.838;4.430;2023-07-08T02:06:02;20.40;99.90
23568;DHT22;11962;50.838;4.430;2023-07-08T02:08:27;20.40;99.90
23568;DHT22;11962;50.838;4.430;2023-07-08T02:10:55;20.30;99.90
23568;DHT22;11962;50.838;4.430;2023-07-08T02:13:21;20.30;99.90
23568;DHT22;11962;50.838;4.430;2023-07-08T02:15:48;20.20;99.90
23568;DHT22;11962;50.838;4.430;2023-07-08T02:18:14;20.20;99.90
23568;DHT22;11962;50.838;4.430;2023-07-08T02:20:40;20.10;99.90
23568;DHT22;11962;50.838;4.430;2023-07-08T02:23:05;20.10;99.90
23568;DHT22;11962;50.838;4.430;2023-07-08T02:25:31;20.10;99.90
23568;DHT22;11962;50.838;4.430;2023-07-08T02:27:57;20.10;99.90
23568;DHT22;11962;50.838;4.430;2023-07-08T02:30:26;20.10;99.90
23568;DHT22;11962;50.838;4.430;2023-07-08T02:32:52;20.00;99.90
23568;DHT22;11962;50.838;4.430;2023-07-08T02:35:26;20.00;99.90
23568;DHT22;11962;50.838;4.430;2023-07-08T02:37:53;19.90;99.90
23568;DHT22;11962;50.838;4.430;2023-07-08T02:40:19;19.90;99.90
23568;DHT22;11962;50.838;4.430;2023-07-08T02:42:45;19.80;99.90
23568;DHT22;11962;50.838;4.430;2023-07-08T02:45:12;19.90;99.90
23568;DHT22;11962;50.838;4.430;2023-07-08T02:47:37;19.90;99.90
23568;DHT22;11962;50.838;4.430;2023-07-08T02:50:04;19.90;99.90
23568;DHT22;11962;50.838;4.430;2023-07-08T02:52:30;19.90;99.90
23568;DHT22;11962;50.838;4.430;2023-07-08T02:54:55;19.90;99.90
23568;DHT22;11962;50.838;4.430;2023-07-08T02:57:21;19.90;99.90
23568;DHT22;11962;50.838;4.430;2023-07-08T02:59:47;19.90;99.90
23568;DHT22;11962;50.838;4.430;2023-07-08T03:02:13;19.90;99.90
23568;DHT22;11962;50.838;4.430;2023-07-08T03:04:39;19.90;99.90
23568;DHT22;11962;50.838;4.430;2023-07-08T03:07:06;19.90;99.90
23568;DHT22;11962;50.838;4.430;2023-07-08T03:09:37;19.90;99.90
23568;DHT22;11962;50.838;4.430;2023-07-08T03:12:05;19.90;99.90
23568;DHT22;11962;50.838;4.430;2023-07-08T03:14:31;19.90;99.90
23568;DHT22;11962;50.838;4.430;2023-07-08T03:16:57;19.80;99.90
23568;DHT22;11962;50.838;4.430;2023-07-08T03:19:23;19.80;99.90
23568;DHT22;11962;50.838;4.430;2023-07-08T03:21:48;19.80;99.90
23568;DHT22;11962;50.838;4.430;2023-07-08T03:24:14;19.80;99.90
23568;DHT22;11962;50.838;4.430;2023-07-08T03:26:44;19.80;99.90
23568;DHT22;11962;50.838;4.430;2023-07-08T03:29:17;19.80;99.90
23568;DHT22;11962;50.838;4.430;2023-07-08T03:31:45;19.80;99.90
23568;DHT22;11962;50.838;4.430;2023-07-08T03:34:12;19.80;99.90
23568;DHT22;11962;50.838;4.430;2023-07-08T03:36:46;19.80;99.90
23568;DHT22;11962;50.838;4.430;2023-07-08T03:39:18;19.80;99.90
23568;DHT22;11962;50.838;4.430;2023-07-08T03:41:44;19.80;99.90
23568;DHT22;11962;50.838;4.430;2023-07-08T03:44:11;19.80;99.90
23568;DHT22;11962;50.838;4.430;2023-07-08T03:46:37;19.80;99.90
23568;DHT22;11962;50.838;4.430;2023-07-08T03:49:04;19.80;99.90
23568;DHT22;11962;50.838;4.430;2023-07-08T03:51:34;19.80;99.90
23568;DHT22;11962;50.838;4.430;2023-07-08T03:54:01;19.80;99.90
23568;DHT22;11962;50.838;4.430;2023-07-08T03:56:27;19.80;99.90
23568;DHT22;11962;50.838;4.430;2023-07-08T03:58:54;19.80;99.90
23568;DHT22;11962;50.838;4.430;2023-07-08T04:01:24;19.80;99.90
23568;DHT22;11962;50.838;4.430;2023-07-08T04:03:52;19.80;99.90
23568;DHT22;11962;50.838;4.430;2023-07-08T04:06:19;19.80;99.90
23568;DHT22;11962;50.838;4.430;2023-07-08T04:08:45;19.70;99.90
23568;DHT22;11962;50.838;4.430;2023-07-08T04:11:17;19.70;99.90
23568;DHT22;11962;50.838;4.430;2023-07-08T04:13:43;19.80;99.90
23568;DHT22;11962;50.838;4.430;2023-07-08T04:16:41;19.80;99.90
23568;DHT22;11962;50.838;4.430;2023-07-08T04:19:03;19.90;99.90
23568;DHT22;11962;50.838;4.430;2023-07-08T04:21:29;19.90;99.90
23568;DHT22;11962;50.838;4.430;2023-07-08T04:23:55;19.90;99.90
23568;DHT22;11962;50.838;4.430;2023-07-08T04:26:21;19.80;99.90
23568;DHT22;11962;50.838;4.430;2023-07-08T04:28:47;19.90;99.90
23568;DHT22;11962;50.838;4.430;2023-07-08T04:31:13;19.80;99.90
23568;DHT22;11962;50.838;4.430;2023-07-08T04:33:38;19.80;99.90
23568;DHT22;11962;50.838;4.430;2023-07-08T04:36:08;19.80;99.90
23568;DHT22;11962;50.838;4.430;2023-07-08T04:38:36;19.80;99.90
23568;DHT22;11962;50.838;4.430;2023-07-08T04:41:02;19.90;99.90
23568;DHT22;11962;50.838;4.430;2023-07-08T04:43:27;19.90;99.90
23568;DHT22;11962;50.838;4.430;2023-07-08T04:45:54;20.00;99.90
23568;DHT22;11962;50.838;4.430;2023-07-08T04:48:21;20.00;99.90
23568;DHT22;11962;50.838;4.430;2023-07-08T04:50:49;20.10;99.90
23568;DHT22;11962;50.838;4.430;2023-07-08T04:53:15;20.20;99.90
23568;DHT22;11962;50.838;4.430;2023-07-08T04:55:50;20.20;99.90
23568;DHT22;11962;50.838;4.430;2023-07-08T04:58:16;20.30;99.90
23568;DHT22;11962;50.838;4.430;2023-07-08T05:00:42;20.40;99.90
23568;DHT22;11962;50.838;4.430;2023-07-08T05:03:08;20.50;99.90
23568;DHT22;11962;50.838;4.430;2023-07-08T05:05:34;20.50;99.90
23568;DHT22;11962;50.838;4.430;2023-07-08T05:07:59;20.60;99.90
23568;DHT22;11962;50.838;4.430;2023-07-08T05:10:26;20.60;99.90
23568;DHT22;11962;50.838;4.430;2023-07-08T05:12:51;20.70;99.90
23568;DHT22;11962;50.838;4.430;2023-07-08T05:15:17;20.80;99.90
23568;DHT22;11962;50.838;4.430;2023-07-08T05:17:43;20.90;99.90
23568;DHT22;11962;50.838;4.430;2023-07-08T05:20:11;21.00;99.90
23568;DHT22;11962;50.838;4.430;2023-07-08T05:22:37;21.00;99.90
23568;DHT22;11962;50.838;4.430;2023-07-08T05:25:03;21.10;99.90
23568;DHT22;11962;50.838;4.430;2023-07-08T05:27:31;21.30;99.90
23568;DHT22;11962;50.838;4.430;2023-07-08T05:29:59;21.40;99.90
23568;DHT22;11962;50.838;4.430;2023-07-08T05:32:25;21.50;99.90
23568;DHT22;11962;50.838;4.430;2023-07-08T05:34:52;21.60;99.90
23568;DHT22;11962;50.838;4.430;2023-07-08T05:37:18;21.80;99.90
23568;DHT22;11962;50.838;4.430;2023-07-08T05:39:47;21.90;99.90
23568;DHT22;11962;50.838;4.430;2023-07-08T05:42:12;22.00;99.90
23568;DHT22;11962;50.838;4.430;2023-07-08T05:44:38;22.20;99.90
23568;DHT22;11962;50.838;4.430;2023-07-08T05:47:04;22.30;99.90
23568;DHT22;11962;50.838;4.430;2023-07-08T05:49:29;22.40;99.90
23568;DHT22;11962;50.838;4.430;2023-07-08T05:51:55;22.60;99.90
23568;DHT22;11962;50.838;4.430;2023-07-08T05:54:21;23.10;99.90
23568;DHT22;11962;50.838;4.430;2023-07-08T05:56:47;24.70;99.90
23568;DHT22;11962;50.838;4.430;2023-07-08T05:59:12;26.30;99.90
23568;DHT22;11962;50.838;4.430;2023-07-08T06:01:38;27.70;99.90
23568;DHT22;11962;50.838;4.430;2023-07-08T06:04:07;29.20;98.20
23568;DHT22;11962;50.838;4.430;2023-07-08T06:06:33;30.50;92.50
23568;DHT22;11962;50.838;4.430;2023-07-08T06:08:59;31.90;86.20
23568;DHT22;11962;50.838;4.430;2023-07-08T06:11:25;33.40;77.50
23568;DHT22;11962;50.838;4.430;2023-07-08T06:13:51;34.80;70.90
23568;DHT22;11962;50.838;4.430;2023-07-08T06:16:17;36.00;65.30
23568;DHT22;11962;50.838;4.430;2023-07-08T06:18:42;37.00;60.70
23568;DHT22;11962;50.838;4.430;2023-07-08T06:21:08;37.90;58.20
23568;DHT22;11962;50.838;4.430;2023-07-08T06:23:34;38.60;55.50
23568;DHT22;11962;50.838;4.430;2023-07-08T06:26:00;39.40;53.20
23568;DHT22;11962;50.838;4.430;2023-07-08T06:28:26;40.10;51.50
23568;DHT22;11962;50.838;4.430;2023-07-08T06:30:51;40.90;50.00
23568;DHT22;11962;50.838;4.430;2023-07-08T06:33:17;41.60;48.10
23568;DHT22;11962;50.838;4.430;2023-07-08T06:35:43;42.10;46.80
23568;DHT22;11962;50.838;4.430;2023-07-08T06:38:10;42.50;45.50
23568;DHT22;11962;50.838;4.430;2023-07-08T06:40:36;42.90;45.10
23568;DHT22;11962;50.838;4.430;2023-07-08T06:43:02;43.40;43.70
23568;DHT22;11962;50.838;4.430;2023-07-08T06:45:28;43.90;43.00
23568;DHT22;11962;50.838;4.430;2023-07-08T06:47:54;44.50;41.50
23568;DHT22;11962;50.838;4.430;2023-07-08T06:50:19;45.00;40.60
23568;DHT22;11962;50.838;4.430;2023-07-08T06:52:45;45.30;39.50
23568;DHT22;11962;50.838;4.430;2023-07-08T06:55:11;45.70;39.10
23568;DHT22;11962;50.838;4.430;2023-07-08T06:57:38;46.20;39.10
23568;DHT22;11962;50.838;4.430;2023-07-08T07:00:10;46.80;37.70
23568;DHT22;11962;50.838;4.430;2023-07-08T07:02:37;47.10;37.00
23568;DHT22;11962;50.838;4.430;2023-07-08T07:05:04;47.50;37.60
23568;DHT22;11962;50.838;4.430;2023-07-08T07:07:30;47.80;36.40
23568;DHT22;11962;50.838;4.430;2023-07-08T07:09:56;48.30;36.60
23568;DHT22;11962;50.838;4.430;2023-07-08T07:12:24;48.70;35.70
23568;DHT22;11962;50.838;4.430;2023-07-08T07:14:50;49.00;35.20
23568;DHT22;11962;50.838;4.430;2023-07-08T07:17:21;49.30;34.90
23568;DHT22;11962;50.838;4.430;2023-07-08T07:19:47;49.80;34.40
23568;DHT22;11962;50.838;4.430;2023-07-08T07:22:13;50.10;34.10
23568;DHT22;11962;50.838;4.430;2023-07-08T07:24:39;50.50;33.60
23568;DHT22;11962;50.838;4.430;2023-07-08T07:27:05;50.90;33.70
23568;DHT22;11962;50.838;4.430;2023-07-08T07:29:48;51.30;33.00
23568;DHT22;11962;50.838;4.430;2023-07-08T07:32:16;51.70;32.80
23568;DHT22;11962;50.838;4.430;2023-07-08T07:34:42;51.80;32.00
23568;DHT22;11962;50.838;4.430;2023-07-08T07:37:13;52.30;31.60
23568;DHT22;11962;50.838;4.430;2023-07-08T07:39:39;52.70;31.30
23568;DHT22;11962;50.838;4.430;2023-07-08T07:42:05;52.90;30.90
23568;DHT22;11962;50.838;4.430;2023-07-08T07:44:31;53.10;30.90
23568;DHT22;11962;50.838;4.430;2023-07-08T07:46:57;53.40;30.50
23568;DHT22;11962;50.838;4.430;2023-07-08T07:49:23;53.40;30.00
23568;DHT22;11962;50.838;4.430;2023-07-08T07:51:48;53.50;30.00
23568;DHT22;11962;50.838;4.430;2023-07-08T07:54:15;53.90;30.00
23568;DHT22;11962;50.838;4.430;2023-07-08T07:56:40;54.20;29.50
23568;DHT22;11962;50.838;4.430;2023-07-08T07:59:06;54.20;29.10
23568;DHT22;11962;50.838;4.430;2023-07-08T08:01:32;54.20;28.70
23568;DHT22;11962;50.838;4.430;2023-07-08T08:03:57;54.10;28.80
23568;DHT22;11962;50.838;4.430;2023-07-08T08:06:23;54.50;29.10
23568;DHT22;11962;50.838;4.430;2023-07-08T08:08:49;54.80;28.60
23568;DHT22;11962;50.838;4.430;2023-07-08T08:11:15;54.80;28.40
23568;DHT22;11962;50.838;4.430;2023-07-08T08:13:41;54.80;28.10
23568;DHT22;11962;50.838;4.430;2023-07-08T08:16:07;55.10;27.30
23568;DHT22;11962;50.838;4.430;2023-07-08T08:18:33;55.20;27.40
23568;DHT22;11962;50.838;4.430;2023-07-08T08:20:59;55.30;27.10
23568;DHT22;11962;50.838;4.430;2023-07-08T08:23:25;55.30;26.80
23568;DHT22;11962;50.838;4.430;2023-07-08T08:25:51;54.90;26.80
23568;DHT22;11962;50.838;4.430;2023-07-08T08:28:17;54.90;27.20
23568;DHT22;11962;50.838;4.430;2023-07-08T08:30:47;55.20;26.90
23568;DHT22;11962;50.838;4.430;2023-07-08T08:33:13;54.90;26.90
23568;DHT22;11962;50.838;4.430;2023-07-08T08:35:38;54.90;27.10
23568;DHT22;11962;50.838;4.430;2023-07-08T08:38:04;55.20;27.10
23568;DHT22;11962;50.838;4.430;2023-07-08T08:40:31;55.60;27.20
23568;DHT22;11962;50.838;4.430;2023-07-08T08:43:03;55.70;26.50
23568;DHT22;11962;50.838;4.430;2023-07-08T08:45:34;55.70;27.40
23568;DHT22;11962;50.838;4.430;2023-07-08T08:48:04;55.80;26.40
23568;DHT22;11962;50.838;4.430;2023-07-08T08:53:33;55.30;26.70
23568;DHT22;11962;50.838;4.430;2023-07-08T08:56:22;55.30;26.90
23568;DHT22;11962;50.838;4.430;2023-07-08T08:58:59;55.80;26.90
23568;DHT22;11962;50.838;4.430;2023-07-08T09:01:27;56.10;26.80
23568;DHT22;11962;50.838;4.430;2023-07-08T09:06:38;56.40;26.50
23568;DHT22;11962;50.838;4.430;2023-07-08T09:09:40;56.50;26.70
23568;DHT22;11962;50.838;4.430;2023-07-08T09:12:06;56.40;26.40
23568;DHT22;11962;50.838;4.430;2023-07-08T09:14:37;56.80;26.30
23568;DHT22;11962;50.838;4.430;2023-07-08T09:17:29;56.80;26.10
23568;DHT22;11962;50.838;4.430;2023-07-08T09:22:56;57.40;25.80
23568;DHT22;11962;50.838;4.430;2023-07-08T09:27:57;57.70;25.70
23568;DHT22;11962;50.838;4.430;2023-07-08T09:30:24;57.80;25.70
23568;DHT22;11962;50.838;4.430;2023-07-08T09:32:50;58.10;25.00
23568;DHT22;11962;50.838;4.430;2023-07-08T09:35:23;57.90;24.90
23568;DHT22;11962;50.838;4.430;2023-07-08T09:37:50;58.10;24.90
23568;DHT22;11962;50.838;4.430;2023-07-08T09:40:20;57.80;24.70
23568;DHT22;11962;50.838;4.430;2023-07-08T09:42:57;58.10;24.70
23568;DHT22;11962;50.838;4.430;2023-07-08T09:45:24;58.40;24.60
23568;DHT22;11962;50.838;4.430;2023-07-08T09:47:55;58.80;24.60
23568;DHT22;11962;50.838;4.430;2023-07-08T09:50:26;58.90;24.50
23568;DHT22;11962;50.838;4.430;2023-07-08T09:52:55;59.10;24.30
23568;DHT22;11962;50.838;4.430;2023-07-08T09:55:23;58.90;24.20
23568;DHT22;11962;50.838;4.430;2023-07-08T09:57:51;58.80;24.40
23568;DHT22;11962;50.838;4.430;2023-07-08T10:00:26;58.50;24.60
23568;DHT22;11962;50.838;4.430;2023-07-08T10:02:55;58.60;24.50
23568;DHT22;11962;50.838;4.430;2023-07-08T10:05:34;58.70;24.60
23568;DHT22;11962;50.838;4.430;2023-07-08T10:08:02;58.80;24.40
23568;DHT22;11962;50.838;4.430;2023-07-08T10:10:37;58.80;24.30
23568;DHT22;11962;50.838;4.430;2023-07-08T10:13:23;58.60;24.50
23568;DHT22;11962;50.838;4.430;2023-07-08T10:15:56;58.60;24.60
23568;DHT22;11962;50.838;4.430;2023-07-08T10:18:29;58.70;24.60
23568;DHT22;11962;50.838;4.430;2023-07-08T10:26:32;58.80;24.40
23568;DHT22;11962;50.838;4.430;2023-07-08T10:29:32;58.90;24.60
23568;DHT22;11962;50.838;4.430;2023-07-08T10:35:03;58.30;24.10
23568;DHT22;11962;50.838;4.430;2023-07-08T10:38:00;57.50;24.40
23568;DHT22;11962;50.838;4.430;2023-07-08T10:40:49;56.80;24.30
23568;DHT22;11962;50.838;4.430;2023-07-08T10:44:08;56.80;24.80
23568;DHT22;11962;50.838;4.430;2023-07-08T10:47:03;56.90;25.00
23568;DHT22;11962;50.838;4.430;2023-07-08T10:49:44;56.70;25.20
23568;DHT22;11962;50.838;4.430;2023-07-08T10:55:13;57.20;25.10
23568;DHT22;11962;50.838;4.430;2023-07-08T10:58:19;57.40;25.10
23568;DHT22;11962;50.838;4.430;2023-07-08T11:00:44;57.30;25.20
23568;DHT22;11962;50.838;4.430;2023-07-08T11:06:18;57.10;25.60
23568;DHT22;11962;50.838;4.430;2023-07-08T11:08:57;56.80;25.60
23568;DHT22;11962;50.838;4.430;2023-07-08T11:11:52;56.50;25.50
23568;DHT22;11962;50.838;4.430;2023-07-08T11:17:26;55.50;26.10
23568;DHT22;11962;50.838;4.430;2023-07-08T11:20:09;54.90;26.30
23568;DHT22;11962;50.838;4.430;2023-07-08T11:22:41;54.40;26.30
23568;DHT22;11962;50.838;4.430;2023-07-08T11:25:18;54.50;26.60
23568;DHT22;11962;50.838;4.430;2023-07-08T11:27:46;54.50;26.50
23568;DHT22;11962;50.838;4.430;2023-07-08T11:30:22;54.80;26.70
23568;DHT22;11962;50.838;4.430;2023-07-08T11:32:57;54.80;26.40
23568;DHT22;11962;50.838;4.430;2023-07-08T11:37:59;54.70;26.50
23568;DHT22;11962;50.838;4.430;2023-07-08T11:40:25;53.50;27.00
23568;DHT22;11962;50.838;4.430;2023-07-08T11:42:52;53.00;27.90
23568;DHT22;11962;50.838;4.430;2023-07-08T11:47:50;51.30;28.50
23568;DHT22;11962;50.838;4.430;2023-07-08T11:50:30;50.40;28.70
23568;DHT22;11962;50.838;4.430;2023-07-08T11:53:10;48.90;29.60
23568;DHT22;11962;50.838;4.430;2023-07-08T11:55:47;48.40;30.60
23568;DHT22;11962;50.838;4.430;2023-07-08T11:58:23;48.20;30.30
23568;DHT22;11962;50.838;4.430;2023-07-08T12:01:34;47.00;31.50
23568;DHT22;11962;50.838;4.430;2023-07-08T12:03:58;45.90;32.60
23568;DHT22;11962;50.838;4.430;2023-07-08T12:09:00;43.80;34.10
23568;DHT22;11962;50.838;4.430;2023-07-08T12:11:43;43.30;35.00
23568;DHT22;11962;50.838;4.430;2023-07-08T12:14:09;42.80;35.80
23568;DHT22;11962;50.838;4.430;2023-07-08T12:16:35;42.60;36.70
23568;DHT22;11962;50.838;4.430;2023-07-08T12:19:02;42.20;37.00
23568;DHT22;11962;50.838;4.430;2023-07-08T12:21:30;41.90;37.10
23568;DHT22;11962;50.838;4.430;2023-07-08T12:24:04;41.60;37.80
23568;DHT22;11962;50.838;4.430;2023-07-08T12:26:31;41.40;38.50
23568;DHT22;11962;50.838;4.430;2023-07-08T12:28:56;41.20;38.40
23568;DHT22;11962;50.838;4.430;2023-07-08T12:31:23;41.00;38.40
23568;DHT22;11962;50.838;4.430;2023-07-08T12:33:50;40.70;39.20
23568;DHT22;11962;50.838;4.430;2023-07-08T12:36:25;40.40;39.60
23568;DHT22;11962;50.838;4.430;2023-07-08T12:38:53;40.10;40.10
23568;DHT22;11962;50.838;4.430;2023-07-08T12:41:24;39.90;40.10
23568;DHT22;11962;50.838;4.430;2023-07-08T12:43:50;39.60;40.40
23568;DHT22;11962;50.838;4.430;2023-07-08T12:46:18;39.30;40.90
23568;DHT22;11962;50.838;4.430;2023-07-08T12:48:44;39.10;41.60
23568;DHT22;11962;50.838;4.430;2023-07-08T12:51:18;38.50;44.30
23568;DHT22;11962;50.838;4.430;2023-07-08T12:53:47;37.40;47.50
23568;DHT22;11962;50.838;4.430;2023-07-08T12:56:13;36.20;50.90
23568;DHT22;11962;50.838;4.430;2023-07-08T12:58:45;34.90;53.50
23568;DHT22;11962;50.838;4.430;2023-07-08T13:01:24;34.00;56.30
23568;DHT22;11962;50.838;4.430;2023-07-08T13:03:53;32.80;74.10
23568;DHT22;11962;50.838;4.430;2023-07-08T13:06:22;30.90;85.90
23568;DHT22;11962;50.838;4.430;2023-07-08T13:08:49;29.30;99.30
23568;DHT22;11962;50.838;4.430;2023-07-08T13:11:18;28.20;99.90
23568;DHT22;11962;50.838;4.430;2023-07-08T13:14:07;27.40;99.90
23568;DHT22;11962;50.838;4.430;2023-07-08T13:16:34;27.00;99.90
23568;DHT22;11962;50.838;4.430;2023-07-08T13:19:01;26.70;99.90
23568;DHT22;11962;50.838;4.430;2023-07-08T13:21:27;26.30;99.90
23568;DHT22;11962;50.838;4.430;2023-07-08T13:23:54;26.20;99.90
23568;DHT22;11962;50.838;4.430;2023-07-08T13:26:26;26.50;99.90
23568;DHT22;11962;50.838;4.430;2023-07-08T13:29:11;26.80;99.90
23568;DHT22;11962;50.838;4.430;2023-07-08T13:31:39;27.20;99.90
23568;DHT22;11962;50.838;4.430;2023-07-08T13:34:08;27.40;99.90
23568;DHT22;11962;50.838;4.430;2023-07-08T13:36:37;27.70;99.90
23568;DHT22;11962;50.838;4.430;2023-07-08T13:39:08;28.00;99.90
23568;DHT22;11962;50.838;4.430;2023-07-08T13:41:35;28.50;99.90
23568;DHT22;11962;50.838;4.430;2023-07-08T13:44:06;28.60;99.90
23568;DHT22;11962;50.838;4.430;2023-07-08T13:49:39;29.00;99.90
23568;DHT22;11962;50.838;4.430;2023-07-08T13:54:41;29.50;99.90
23568;DHT22;11962;50.838;4.430;2023-07-08T13:57:13;29.80;99.90
23568;DHT22;11962;50.838;4.430;2023-07-08T13:59:40;29.80;99.90
23568;DHT22;11962;50.838;4.430;2023-07-08T14:02:15;29.80;99.90
23568;DHT22;11962;50.838;4.430;2023-07-08T14:04:41;30.00;99.90
23568;DHT22;11962;50.838;4.430;2023-07-08T14:07:29;30.50;99.90
23568;DHT22;11962;50.838;4.430;2023-07-08T14:09:55;30.90;99.90
23568;DHT22;11962;50.838;4.430;2023-07-08T14:12:22;31.40;99.90
23568;DHT22;11962;50.838;4.430;2023-07-08T14:14:48;31.70;99.90
23568;DHT22;11962;50.838;4.430;2023-07-08T14:17:23;32.00;99.90
23568;DHT22;11962;50.838;4.430;2023-07-08T14:19:49;32.20;99.90
23568;DHT22;11962;50.838;4.430;2023-07-08T14:22:27;32.20;99.90
23568;DHT22;11962;50.838;4.430;2023-07-08T14:24:54;32.10;99.90
23568;DHT22;11962;50.838;4.430;2023-07-08T14:27:20;31.90;99.90
23568;DHT22;11962;50.838;4.430;2023-07-08T14:29:47;31.80;99.90
23568;DHT22;11962;50.838;4.430;2023-07-08T14:32:28;31.70;99.90
23568;DHT22;11962;50.838;4.430;2023-07-08T14:35:00;31.70;99.90
23568;DHT22;11962;50.838;4.430;2023-07-08T14:37:28;31.70;99.90
23568;DHT22;11962;50.838;4.430;2023-07-08T14:39:54;31.80;99.90
23568;DHT22;11962;50.838;4.430;2023-07-08T14:42:20;31.80;99.90
23568;DHT22;11962;50.838;4.430;2023-07-08T14:44:48;31.80;99.90
23568;DHT22;11962;50.838;4.430;2023-07-08T14:47:16;31.80;99.90
23568;DHT22;11962;50.838;4.430;2023-07-08T14:49:42;31.70;99.90
23568;DHT22;11962;50.838;4.430;2023-07-08T14:52:08;31.70;99.90
23568;DHT22;11962;50.838;4.430;2023-07-08T14:54:34;31.60;99.90
23568;DHT22;11962;50.838;4.430;2023-07-08T14:57:01;31.60;99.90
23568;DHT22;11962;50.838;4.430;2023-07-08T14:59:30;31.60;99.90
23568;DHT22;11962;50.838;4.430;2023-07-08T15:01:58;31.60;99.90
23568;DHT22;11962;50.838;4.430;2023-07-08T15:04:24;31.40;99.90
23568;DHT22;11962;50.838;4.430;2023-07-08T15:06:50;31.40;99.90
23568;DHT22;11962;50.838;4.430;2023-07-08T15:09:17;31.40;99.90
23568;DHT22;11962;50.838;4.430;2023-07-08T15:11:44;31.50;99.90
23568;DHT22;11962;50.838;4.430;2023-07-08T15:14:21;31.40;99.90
23568;DHT22;11962;50.838;4.430;2023-07-08T15:16:48;31.40;99.90
23568;DHT22;11962;50.838;4.430;2023-07-08T15:19:15;31.40;99.90
23568;DHT22;11962;50.838;4.430;2023-07-08T15:21:41;31.40;99.90
23568;DHT22;11962;50.838;4.430;2023-07-08T15:24:09;31.40;99.90
23568;DHT22;11962;50.838;4.430;2023-07-08T15:26:48;31.50;99.90
23568;DHT22;11962;50.838;4.430;2023-07-08T15:29:16;31.70;99.90
23568;DHT22;11962;50.838;4.430;2023-07-08T15:31:43;31.80;99.90
23568;DHT22;11962;50.838;4.430;2023-07-08T15:34:21;31.90;99.90
23568;DHT22;11962;50.838;4.430;2023-07-08T15:36:47;32.00;99.90
23568;DHT22;11962;50.838;4.430;2023-07-08T15:39:14;32.10;99.90
23568;DHT22;11962;50.838;4.430;2023-07-08T15:41:40;32.20;99.90
23568;DHT22;11962;50.838;4.430;2023-07-08T15:44:11;32.30;99.90
23568;DHT22;11962;50.838;4.430;2023-07-08T15:46:48;32.50;99.90
23568;DHT22;11962;50.838;4.430;2023-07-08T15:49:19;32.70;99.90
23568;DHT22;11962;50.838;4.430;2023-07-08T15:51:45;32.80;99.90
23568;DHT22;11962;50.838;4.430;2023-07-08T15:54:11;32.90;99.90
23568;DHT22;11962;50.838;4.430;2023-07-08T15:56:37;33.00;98.40
23568;DHT22;11962;50.838;4.430;2023-07-08T15:59:03;33.10;97.90
23568;DHT22;11962;50.838;4.430;2023-07-08T16:01:29;33.20;97.20
23568;DHT22;11962;50.838;4.430;2023-07-08T16:03:55;33.20;94.30
23568;DHT22;11962;50.838;4.430;2023-07-08T16:06:21;33.20;93.50
23568;DHT22;11962;50.838;4.430;2023-07-08T16:08:47;33.20;94.20
23568;DHT22;11962;50.838;4.430;2023-07-08T16:11:20;33.30;94.70
23568;DHT22;11962;50.838;4.430;2023-07-08T16:13:50;33.40;93.50
23568;DHT22;11962;50.838;4.430;2023-07-08T16:16:15;33.60;92.10
23568;DHT22;11962;50.838;4.430;2023-07-08T16:18:41;33.80;93.80
23568;DHT22;11962;50.838;4.430;2023-07-08T16:21:07;33.80;92.70
23568;DHT22;11962;50.838;4.430;2023-07-08T16:23:33;33.70;92.00
23568;DHT22;11962;50.838;4.430;2023-07-08T16:26:00;33.60;92.00
23568;DHT22;11962;50.838;4.430;2023-07-08T16:30:55;33.30;92.90
23568;DHT22;11962;50.838;4.430;2023-07-08T16:33:21;33.40;93.30
23568;DHT22;11962;50.838;4.430;2023-07-08T16:35:47;33.50;92.60